Time;durP1;ratioP1;P1;durP2;ratioP2;P2;SDS_P1;SDS_P2;PMS_P1;PMS_P2;Temp;Humidity;BMP_temperature;BMP_pressure;BME280_temperature;BME280_humidity;BME280_pressure;Samples;Min_cycle;Max_cycle;Signal;HPM_P1;HPM_P2
2023/08/16 00:01:32;;;;;;;8.30;3.60;;;20.50;99.90;;;;;;4934040;29;20201;-82
2023/08/16 00:03:59;;;;;;;7.30;3.25;;;20.50;99.90;;;;;;4928591;29;20221;-82
2023/08/16 00:06:27;;;;;;;7.80;3.15;;;20.50;99.90;;;;;;4924077;29;20202;-82
2023/08/16 00:08:58;;;;;;;5.55;2.40;;;20.50;99.90;;;;;;4913559;29;20198;-82
2023/08/16 00:11:28;;;;;;;5.90;3.35;;;20.50;99.90;;;;;;4921577;29;20209;-82
2023/08/16 00:13:55;;;;;;;7.40;3.10;;;20.40;99.90;;;;;;4924360;29;20193;-82
2023/08/16 00:16:23;;;;;;;9.63;3.25;;;20.40;99.90;;;;;;4934592;29;20227;-83
2023/08/16 00:18:51;;;;;;;5.13;3.00;;;20.40;99.90;;;;;;4919985;29;20670;-82
2023/08/16 00:21:18;;;;;;;7.32;3.58;;;20.40;99.90;;;;;;4923501;29;20194;-82
2023/08/16 00:23:46;;;;;;;4.53;3.10;;;20.40;99.90;;;;;;4922190;29;20264;-83
2023/08/16 00:26:13;;;;;;;5.53;3.22;;;20.30;99.90;;;;;;4927960;29;20201;-83
2023/08/16 00:28:42;;;;;;;7.93;3.45;;;20.30;99.90;;;;;;4916507;29;20257;-82
2023/08/16 00:31:09;;;;;;;6.57;2.55;;;20.30;99.90;;;;;;4930348;29;20201;-82
2023/08/16 00:33:37;;;;;;;9.57;3.45;;;20.20;99.90;;;;;;4917888;29;20590;-82
2023/08/16 00:36:06;;;;;;;6.88;3.00;;;20.10;99.90;;;;;;4911451;29;20329;-83
2023/08/16 00:38:34;;;;;;;7.03;3.25;;;20.10;99.90;;;;;;4895544;29;20198;-83
2023/08/16 00:41:02;;;;;;;7.30;3.88;;;20.20;99.90;;;;;;4914475;29;20208;-82
2023/08/16 00:43:29;;;;;;;5.18;3.33;;;20.10;99.90;;;;;;4926926;29;20198;-82
2023/08/16 00:45:57;;;;;;;6.32;3.30;;;20.20;99.90;;;;;;4937892;29;20249;-82
2023/08/16 00:48:24;;;;;;;6.55;3.08;;;20.00;99.90;;;;;;4913361;29;21041;-82
2023/08/16 00:50:52;;;;;;;6.88;3.15;;;20.10;99.90;;;;;;4918889;29;20194;-83
2023/08/16 00:53:19;;;;;;;6.32;3.55;;;20.10;99.90;;;;;;4921206;29;20253;-83
2023/08/16 00:55:47;;;;;;;9.80;3.42;;;20.00;99.90;;;;;;4919392;29;20210;-84
2023/08/16 00:58:15;;;;;;;6.22;3.00;;;19.90;99.90;;;;;;4929153;29;20269;-83
2023/08/16 01:00:43;;;;;;;10.25;3.45;;;19.90;99.90;;;;;;4936345;29;20189;-83
2023/08/16 01:03:11;;;;;;;7.07;4.07;;;19.90;99.90;;;;;;4929529;29;20216;-83
2023/08/16 01:05:39;;;;;;;7.65;3.53;;;19.80;99.90;;;;;;4928161;29;20196;-83
2023/08/16 01:08:07;;;;;;;12.80;3.85;;;19.80;99.90;;;;;;4918955;29;20236;-83
2023/08/16 01:11:00;;;;;;;8.18;3.30;;;19.90;99.90;;;;;;4929976;29;20198;-82
2023/08/16 01:13:43;;;;;;;6.18;3.50;;;20.00;99.90;;;;;;4921660;29;20300;-84
2023/08/16 01:16:11;;;;;;;6.90;3.35;;;20.00;99.90;;;;;;4917138;29;20261;-83
2023/08/16 01:18:43;;;;;;;6.72;3.50;;;19.90;99.90;;;;;;4923129;29;20190;-83
2023/08/16 01:21:13;;;;;;;9.50;3.78;;;19.80;99.90;;;;;;4923145;29;20535;-84
2023/08/16 01:23:50;;;;;;;6.10;3.22;;;19.90;99.90;;;;;;4921675;29;20198;-83
2023/08/16 01:26:34;;;;;;;10.32;3.63;;;19.90;99.90;;;;;;4916870;29;20231;-83
2023/08/16 01:29:04;;;;;;;7.60;3.83;;;19.90;99.90;;;;;;4921945;29;20204;-83
2023/08/16 01:31:33;;;;;;;11.55;4.15;;;19.90;99.90;;;;;;4933710;29;20220;-83
2023/08/16 01:34:01;;;;;;;8.68;3.25;;;19.80;99.90;;;;;;4925448;29;20690;-84
2023/08/16 01:36:29;;;;;;;8.00;4.78;;;19.80;99.90;;;;;;4919723;29;20729;-83
2023/08/16 01:38:56;;;;;;;6.93;3.95;;;19.70;99.90;;;;;;4941723;29;20197;-84
2023/08/16 01:41:36;;;;;;;9.77;3.55;;;19.70;99.90;;;;;;4941698;29;20196;-83
2023/08/16 01:44:07;;;;;;;6.47;3.55;;;19.80;99.90;;;;;;4927147;29;20610;-83
2023/08/16 01:46:37;;;;;;;5.57;3.50;;;19.80;99.90;;;;;;4940435;29;20602;-83
2023/08/16 01:49:07;;;;;;;4.85;3.47;;;19.80;99.90;;;;;;4939880;29;20256;-83
2023/08/16 01:51:34;;;;;;;7.28;3.67;;;19.90;99.90;;;;;;4925180;29;20222;-83
2023/08/16 01:54:02;;;;;;;5.75;3.30;;;19.90;99.90;;;;;;4933170;29;20193;-83
2023/08/16 01:56:31;;;;;;;6.05;4.40;;;19.90;99.90;;;;;;4920831;29;20289;-84
2023/08/16 01:58:59;;;;;;;6.82;3.22;;;19.80;99.90;;;;;;4941062;29;20222;-83
2023/08/16 02:01:27;;;;;;;7.18;3.08;;;19.80;99.90;;;;;;4934614;29;20194;-83
2023/08/16 02:03:54;;;;;;;9.25;3.88;;;19.80;99.90;;;;;;4930377;29;20225;-83
2023/08/16 02:06:22;;;;;;;6.75;3.35;;;19.70;99.90;;;;;;4926262;29;20198;-83
2023/08/16 02:08:51;;;;;;;6.13;3.60;;;19.70;99.90;;;;;;4926959;29;20189;-83
2023/08/16 02:11:20;;;;;;;5.28;2.72;;;19.70;99.90;;;;;;4940348;29;20224;-83
2023/08/16 02:13:48;;;;;;;4.82;3.17;;;19.70;99.90;;;;;;4930986;29;20288;-84
2023/08/16 02:16:16;;;;;;;7.30;3.47;;;19.60;99.90;;;;;;4921982;29;20312;-83
2023/08/16 02:18:43;;;;;;;8.25;4.00;;;19.60;99.90;;;;;;4914343;29;20194;-83
2023/08/16 02:21:11;;;;;;;7.47;3.78;;;19.70;99.90;;;;;;4926518;29;20189;-83
2023/08/16 02:23:39;;;;;;;6.35;3.72;;;19.70;99.90;;;;;;4926270;29;20256;-84
2023/08/16 02:26:06;;;;;;;5.65;3.88;;;19.70;99.90;;;;;;4933085;29;20206;-84
2023/08/16 02:28:34;;;;;;;9.13;3.95;;;19.70;99.90;;;;;;4923665;29;20621;-83
2023/08/16 02:31:06;;;;;;;7.13;4.13;;;19.60;99.90;;;;;;4920994;29;20195;-83
2023/08/16 02:33:34;;;;;;;4.63;3.60;;;19.60;99.90;;;;;;4931061;29;20194;-83
2023/08/16 02:36:02;;;;;;;7.82;3.92;;;19.50;99.90;;;;;;4929506;29;20630;-83
2023/08/16 02:38:30;;;;;;;6.95;4.05;;;19.50;99.90;;;;;;4922312;29;20200;-83
2023/08/16 02:41:00;;;;;;;6.43;4.00;;;19.60;99.90;;;;;;4931414;29;20694;-83
2023/08/16 02:43:28;;;;;;;6.40;3.85;;;19.60;99.90;;;;;;4925672;29;20192;-83
2023/08/16 02:45:55;;;;;;;9.38;4.40;;;19.60;99.90;;;;;;4938224;29;20749;-83
2023/08/16 02:48:23;;;;;;;9.40;4.25;;;19.60;99.90;;;;;;4917942;29;20210;-83
2023/08/16 02:50:51;;;;;;;9.45;4.93;;;19.60;99.90;;;;;;4929543;29;20198;-83
2023/08/16 02:53:18;;;;;;;8.65;4.93;;;19.50;99.90;;;;;;4926167;29;20199;-82
2023/08/16 02:55:46;;;;;;;8.15;5.20;;;19.50;99.90;;;;;;4932125;29;20276;-82
2023/08/16 02:58:13;;;;;;;10.02;4.50;;;19.30;99.90;;;;;;4922211;29;20209;-83
2023/08/16 03:00:41;;;;;;;10.50;5.30;;;19.40;99.90;;;;;;4930920;29;20186;-82
2023/08/16 03:03:09;;;;;;;7.47;4.82;;;19.40;99.90;;;;;;4932254;29;20248;-83
2023/08/16 03:05:37;;;;;;;7.43;4.22;;;19.40;99.90;;;;;;4925971;29;20189;-83
2023/08/16 03:08:04;;;;;;;8.80;5.20;;;19.40;99.90;;;;;;4931728;29;20193;-83
2023/08/16 03:10:33;;;;;;;7.35;4.43;;;19.40;99.90;;;;;;4932287;29;20240;-83
2023/08/16 03:13:03;;;;;;;8.45;4.28;;;19.50;99.90;;;;;;4928777;29;20212;-83
2023/08/16 03:15:30;;;;;;;8.38;4.97;;;19.50;99.90;;;;;;4920008;29;20677;-84
2023/08/16 03:17:58;;;;;;;8.15;4.90;;;19.40;99.90;;;;;;4918034;29;20298;-83
2023/08/16 03:20:26;;;;;;;6.47;4.35;;;19.40;99.90;;;;;;4916778;29;20201;-82
2023/08/16 03:22:54;;;;;;;9.35;4.40;;;19.40;99.90;;;;;;4928466;29;20190;-83
2023/08/16 03:25:22;;;;;;;6.65;4.38;;;19.40;99.90;;;;;;4931585;29;20197;-83
2023/08/16 03:27:49;;;;;;;8.32;4.72;;;19.50;99.90;;;;;;4929933;29;20231;-82
2023/08/16 03:30:17;;;;;;;8.52;4.40;;;19.50;99.90;;;;;;4930747;29;20683;-82
2023/08/16 03:32:44;;;;;;;8.38;5.15;;;19.50;99.90;;;;;;4924329;29;20195;-83
2023/08/16 03:35:12;;;;;;;6.72;4.55;;;19.50;99.90;;;;;;4930512;29;20331;-82
2023/08/16 03:37:40;;;;;;;9.00;4.55;;;19.40;99.90;;;;;;4937023;29;20245;-83
2023/08/16 03:40:09;;;;;;;8.65;5.15;;;19.50;99.90;;;;;;4928697;29;20213;-82
2023/08/16 03:42:37;;;;;;;7.65;5.40;;;19.50;99.90;;;;;;4921692;29;20221;-83
2023/08/16 03:45:06;;;;;;;7.88;4.93;;;19.50;99.90;;;;;;4919903;29;20190;-82
2023/08/16 03:47:34;;;;;;;5.65;4.55;;;19.50;99.90;;;;;;4928285;29;20673;-83
2023/08/16 03:50:04;;;;;;;9.75;5.82;;;19.50;99.90;;;;;;4921023;29;20186;-83
2023/08/16 03:52:32;;;;;;;6.38;4.63;;;19.50;99.90;;;;;;4917817;29;20202;-83
2023/08/16 03:55:00;;;;;;;6.93;4.68;;;19.50;99.90;;;;;;4915084;29;20257;-83
2023/08/16 03:57:27;;;;;;;10.35;5.95;;;19.50;99.90;;;;;;4922934;29;20197;-83
2023/08/16 03:59:55;;;;;;;9.23;5.55;;;19.50;99.90;;;;;;4936454;29;20209;-83
2023/08/16 04:02:22;;;;;;;10.07;5.55;;;19.50;99.90;;;;;;4924713;29;20193;-83
2023/08/16 04:04:53;;;;;;;5.82;4.78;;;19.50;99.90;;;;;;4919060;29;20195;-84
2023/08/16 04:07:21;;;;;;;7.85;5.57;;;19.50;99.90;;;;;;4928239;29;20280;-84
2023/08/16 04:09:49;;;;;;;8.18;5.18;;;19.50;99.90;;;;;;4929027;29;20607;-83
2023/08/16 04:12:17;;;;;;;7.03;5.38;;;19.50;99.90;;;;;;4937491;29;20289;-83
2023/08/16 04:14:45;;;;;;;6.82;4.82;;;19.50;99.90;;;;;;4900790;29;20216;-83
2023/08/16 04:17:12;;;;;;;9.43;5.28;;;19.50;99.90;;;;;;4930436;29;20276;-83
2023/08/16 04:19:41;;;;;;;9.68;6.18;;;19.50;99.90;;;;;;4934382;29;20649;-83
2023/08/16 04:22:09;;;;;;;10.00;6.68;;;19.50;99.90;;;;;;4916760;29;20199;-84
2023/08/16 04:24:37;;;;;;;11.15;6.03;;;19.50;99.90;;;;;;4949287;28;20188;-82
2023/08/16 04:27:07;;;;;;;8.25;5.90;;;19.50;99.90;;;;;;4932584;29;20241;-83
2023/08/16 04:29:34;;;;;;;9.73;6.10;;;19.50;99.90;;;;;;4928290;29;20292;-83
2023/08/16 04:32:03;;;;;;;9.05;5.85;;;19.50;99.90;;;;;;4923739;29;20234;-83
2023/08/16 04:34:30;;;;;;;9.82;5.63;;;19.50;99.90;;;;;;4930675;29;20209;-83
2023/08/16 04:36:58;;;;;;;8.43;6.22;;;19.50;99.90;;;;;;4924519;29;20212;-82
2023/08/16 04:43:32;;;;;;;9.27;6.15;;;19.60;99.90;;;;;;4917768;29;20988;-82
2023/08/16 04:46:00;;;;;;;10.35;6.53;;;19.70;99.90;;;;;;4907366;29;20229;-83
2023/08/16 04:48:29;;;;;;;7.60;6.55;;;19.70;99.90;;;;;;4906416;29;20201;-83
2023/08/16 04:50:57;;;;;;;11.13;6.40;;;19.70;99.90;;;;;;4934271;29;20205;-83
2023/08/16 05:09:06;;;;;;;14.48;8.85;;;19.80;99.90;;;;;;5051530;28;20561;-82
2023/08/16 05:11:35;;;;;;;12.52;8.63;;;19.90;99.90;;;;;;5040623;28;20197;-82
2023/08/16 05:14:03;;;;;;;17.75;8.05;;;19.90;99.90;;;;;;5048700;28;20292;-83
2023/08/16 05:16:31;;;;;;;12.60;8.57;;;20.00;99.90;;;;;;5048273;28;20574;-83
2023/08/16 05:18:58;;;;;;;11.98;8.30;;;20.10;99.90;;;;;;5049970;28;20239;-82
2023/08/16 05:21:27;;;;;;;12.73;9.05;;;20.10;99.90;;;;;;5051162;28;20272;-82
2023/08/16 05:23:54;;;;;;;15.90;9.63;;;20.10;99.90;;;;;;5052166;27;20189;-84
2023/08/16 05:26:22;;;;;;;13.88;9.70;;;20.10;99.90;;;;;;5048847;28;20225;-85
2023/08/16 05:28:50;;;;;;;12.63;9.40;;;20.20;99.90;;;;;;5028685;28;20185;-84
2023/08/16 05:31:18;;;;;;;13.23;9.50;;;20.20;99.90;;;;;;5047261;28;20768;-84
2023/08/16 05:33:45;;;;;;;15.07;10.07;;;20.20;99.90;;;;;;5053088;28;20269;-84
2023/08/16 05:36:14;;;;;;;14.27;10.02;;;20.30;99.90;;;;;;5134445;27;20185;-85
2023/08/16 05:38:41;;;;;;;15.93;10.18;;;20.30;99.90;;;;;;5056037;28;20300;-84
2023/08/16 05:41:09;;;;;;;16.95;10.75;;;20.40;99.90;;;;;;5052899;28;20677;-84
2023/08/16 05:43:37;;;;;;;14.25;10.60;;;20.40;99.90;;;;;;5052531;28;20658;-82
2023/08/16 05:46:05;;;;;;;13.68;10.30;;;20.40;99.90;;;;;;5051546;28;20212;-84
2023/08/16 05:48:32;;;;;;;16.65;11.35;;;20.40;99.90;;;;;;5048454;28;20273;-85
2023/08/16 05:51:00;;;;;;;13.05;11.13;;;20.50;99.90;;;;;;5053611;28;20554;-84
2023/08/16 05:53:28;;;;;;;13.70;11.23;;;20.50;99.90;;;;;;5045177;28;20812;-84
2023/08/16 05:55:55;;;;;;;14.85;10.68;;;20.60;99.90;;;;;;5048766;28;20218;-85
2023/08/16 05:58:23;;;;;;;16.00;11.50;;;20.70;99.90;;;;;;5048217;28;20212;-84
2023/08/16 06:00:52;;;;;;;15.88;10.43;;;20.70;99.90;;;;;;5057995;28;20236;-82
2023/08/16 06:03:19;;;;;;;16.88;11.07;;;20.70;99.90;;;;;;5036473;28;20181;-82
2023/08/16 06:05:47;;;;;;;16.42;10.73;;;20.80;99.90;;;;;;5050434;28;20262;-82
2023/08/16 06:08:16;;;;;;;17.25;11.27;;;20.80;99.90;;;;;;5045968;28;20311;-83
2023/08/16 06:10:43;;;;;;;17.65;11.13;;;20.90;99.90;;;;;;5038464;28;20269;-82
2023/08/16 06:13:11;;;;;;;15.48;11.57;;;21.00;99.90;;;;;;5038621;28;20190;-82
2023/08/16 06:15:39;;;;;;;16.90;11.45;;;21.10;99.90;;;;;;5038603;28;20230;-83
2023/08/16 06:18:06;;;;;;;13.82;10.57;;;21.10;99.90;;;;;;5039032;28;20296;-83
2023/08/16 06:20:34;;;;;;;13.15;11.20;;;21.10;99.90;;;;;;5037615;28;20182;-82
2023/08/16 06:23:02;;;;;;;16.08;11.75;;;21.20;99.90;;;;;;5037216;28;20301;-83
2023/08/16 06:25:30;;;;;;;20.67;11.38;;;21.30;99.90;;;;;;5036982;28;20269;-83
2023/08/16 06:28:02;;;;;;;17.67;11.75;;;21.40;99.90;;;;;;5030630;28;20267;-83
2023/08/16 06:30:30;;;;;;;14.98;10.18;;;21.40;99.90;;;;;;5031085;28;20215;-83
2023/08/16 06:32:57;;;;;;;16.63;11.30;;;21.40;99.90;;;;;;5032750;28;20197;-83
2023/08/16 06:35:25;;;;;;;12.77;10.55;;;21.50;99.90;;;;;;5039620;28;20707;-82
2023/08/16 06:37:53;;;;;;;16.33;11.00;;;21.60;99.90;;;;;;5034217;28;20833;-82
2023/08/16 06:40:20;;;;;;;14.88;10.43;;;21.70;99.90;;;;;;5037309;28;20182;-82
2023/08/16 06:42:48;;;;;;;13.65;10.85;;;21.70;99.90;;;;;;5038163;28;20189;-83
2023/08/16 06:45:16;;;;;;;15.25;11.35;;;21.70;99.90;;;;;;5037484;28;20194;-83
2023/08/16 06:47:44;;;;;;;17.13;11.15;;;21.70;99.90;;;;;;5036101;28;20266;-84
2023/08/16 06:50:11;;;;;;;18.77;11.07;;;21.90;99.90;;;;;;5033587;28;20677;-82
2023/08/16 06:52:42;;;;;;;14.43;11.82;;;21.90;99.90;;;;;;5034430;28;20277;-83
2023/08/16 06:55:10;;;;;;;17.70;11.07;;;22.00;99.90;;;;;;5042525;28;20961;-83
2023/08/16 06:57:38;;;;;;;18.27;12.43;;;22.00;99.90;;;;;;5030581;28;20206;-83
2023/08/16 07:00:07;;;;;;;16.15;10.95;;;22.00;99.90;;;;;;5041631;28;20807;-82
2023/08/16 07:02:35;;;;;;;16.92;11.45;;;22.10;99.90;;;;;;5033527;28;20273;-83
2023/08/16 07:05:03;;;;;;;16.02;11.55;;;22.10;99.90;;;;;;5031669;28;20608;-83
2023/08/16 07:07:32;;;;;;;14.20;11.25;;;22.20;99.90;;;;;;5036041;28;20236;-83
2023/08/16 07:10:00;;;;;;;13.75;11.63;;;22.20;99.90;;;;;;5036801;28;20590;-83
2023/08/16 07:12:27;;;;;;;14.52;11.63;;;22.30;99.90;;;;;;5037344;28;20190;-82
2023/08/16 07:14:55;;;;;;;14.27;10.93;;;22.30;99.90;;;;;;5038856;28;20196;-83
2023/08/16 07:17:23;;;;;;;19.08;11.80;;;22.50;99.90;;;;;;5038633;28;20559;-82
2023/08/16 07:19:52;;;;;;;15.38;11.13;;;22.60;99.90;;;;;;5035499;28;20664;-82
2023/08/16 07:22:24;;;;;;;12.23;10.45;;;22.70;99.90;;;;;;5036880;28;20201;-83
2023/08/16 07:24:52;;;;;;;16.25;11.10;;;22.80;99.90;;;;;;5122364;27;20483;-83
2023/08/16 07:27:20;;;;;;;13.05;10.77;;;22.90;99.90;;;;;;5044122;28;20213;-83
2023/08/16 07:29:48;;;;;;;15.75;12.43;;;23.10;99.90;;;;;;5035924;28;20197;-82
2023/08/16 07:32:16;;;;;;;15.57;10.73;;;23.10;99.90;;;;;;5032753;28;20193;-82
2023/08/16 07:34:44;;;;;;;15.27;11.77;;;23.20;99.90;;;;;;5036734;28;20198;-83
2023/08/16 07:37:13;;;;;;;13.63;11.38;;;23.10;99.90;;;;;;5034069;28;20242;-83
2023/08/16 07:39:41;;;;;;;16.77;11.63;;;23.10;99.90;;;;;;5037852;28;20246;-82
2023/08/16 07:42:08;;;;;;;20.13;12.07;;;23.20;99.90;;;;;;5037015;28;20311;-83
2023/08/16 07:44:36;;;;;;;16.77;11.60;;;23.20;99.90;;;;;;5036326;28;20186;-83
2023/08/16 07:47:05;;;;;;;14.82;11.75;;;23.30;99.90;;;;;;5039372;28;20204;-83
2023/08/16 07:49:32;;;;;;;17.33;11.63;;;23.30;99.90;;;;;;5034823;28;20217;-83
2023/08/16 07:52:00;;;;;;;17.48;12.30;;;23.30;99.90;;;;;;5038297;28;20182;-83
2023/08/16 07:54:28;;;;;;;13.55;11.15;;;23.30;99.90;;;;;;5037284;28;20194;-83
2023/08/16 07:56:56;;;;;;;13.07;11.48;;;23.50;99.90;;;;;;5036426;27;20553;-83
2023/08/16 07:59:24;;;;;;;15.25;11.73;;;23.50;99.90;;;;;;5042304;28;20206;-83
2023/08/16 08:01:52;;;;;;;13.10;10.98;;;23.50;99.90;;;;;;5036893;28;20238;-82
2023/08/16 08:04:20;;;;;;;17.23;11.60;;;23.70;99.90;;;;;;5034976;28;20239;-82
2023/08/16 08:06:48;;;;;;;18.95;11.13;;;23.70;99.90;;;;;;5035412;28;20191;-84
2023/08/16 08:09:16;;;;;;;19.15;11.45;;;23.70;99.90;;;;;;5035423;28;20221;-83
2023/08/16 08:11:44;;;;;;;15.15;12.02;;;23.80;99.90;;;;;;5032937;28;20682;-83
2023/08/16 08:14:12;;;;;;;14.90;10.88;;;23.90;99.90;;;;;;5036721;28;20194;-82
2023/08/16 08:16:39;;;;;;;18.17;12.43;;;24.10;99.90;;;;;;5034461;28;20276;-84
2023/08/16 08:19:07;;;;;;;13.27;11.90;;;24.10;99.90;;;;;;5038933;28;20308;-84
2023/08/16 08:21:35;;;;;;;15.90;12.85;;;24.10;99.90;;;;;;5034944;28;20193;-83
2023/08/16 08:24:03;;;;;;;16.98;12.07;;;24.20;99.90;;;;;;5038399;28;20186;-83
2023/08/16 08:26:31;;;;;;;14.80;11.75;;;24.30;99.90;;;;;;5040395;28;20195;-84
2023/08/16 08:28:58;;;;;;;19.40;12.80;;;24.30;99.90;;;;;;5038503;28;20238;-84
2023/08/16 08:31:26;;;;;;;15.10;11.77;;;24.40;99.90;;;;;;5037160;28;20189;-83
2023/08/16 08:33:53;;;;;;;14.88;12.07;;;24.60;99.90;;;;;;5035749;28;20344;-84
2023/08/16 08:36:21;;;;;;;12.90;11.60;;;24.60;99.90;;;;;;5029071;28;20723;-83
2023/08/16 08:38:49;;;;;;;16.77;11.68;;;24.60;99.90;;;;;;5035093;28;20193;-84
2023/08/16 08:41:21;;;;;;;16.23;11.38;;;24.60;99.90;;;;;;5034989;28;20190;-83
2023/08/16 08:43:58;;;;;;;17.23;12.88;;;24.70;99.90;;;;;;5035034;28;20212;-84
2023/08/16 08:46:29;;;;;;;17.88;13.07;;;24.90;99.90;;;;;;5037859;28;20736;-84
2023/08/16 08:49:01;;;;;;;14.90;11.55;;;25.00;99.90;;;;;;5037394;28;21030;-84
2023/08/16 08:51:32;;;;;;;17.85;12.32;;;25.20;99.90;;;;;;5036995;28;20196;-84
2023/08/16 08:54:00;;;;;;;20.55;11.57;;;25.30;99.90;;;;;;5030948;28;20225;-83
2023/08/16 08:56:29;;;;;;;16.27;12.73;;;25.30;99.90;;;;;;5044458;28;20281;-83
2023/08/16 08:59:01;;;;;;;18.27;11.88;;;25.30;99.90;;;;;;5038317;28;20210;-83
2023/08/16 09:01:43;;;;;;;14.13;11.77;;;25.40;99.90;;;;;;5034189;28;20189;-83
2023/08/16 09:04:13;;;;;;;19.58;12.45;;;25.50;99.90;;;;;;5044698;28;20182;-84
2023/08/16 09:06:42;;;;;;;12.98;11.60;;;25.40;99.90;;;;;;5026612;28;20194;-84
2023/08/16 09:09:12;;;;;;;13.85;11.93;;;25.50;99.90;;;;;;5036870;28;20592;-82
2023/08/16 09:11:41;;;;;;;16.05;11.30;;;25.50;99.90;;;;;;5036908;28;20200;-83
2023/08/16 09:14:09;;;;;;;15.00;12.27;;;25.70;99.90;;;;;;5025700;28;20280;-84
2023/08/16 09:16:37;;;;;;;17.15;12.00;;;25.90;99.90;;;;;;5037397;28;20189;-83
2023/08/16 09:19:15;;;;;;;15.50;12.98;;;25.80;99.90;;;;;;5036277;28;20197;-83
2023/08/16 09:21:43;;;;;;;15.57;11.57;;;25.90;99.90;;;;;;5036090;28;20201;-83
2023/08/16 09:24:11;;;;;;;18.08;13.18;;;25.90;99.90;;;;;;5035077;28;20196;-83
2023/08/16 09:26:41;;;;;;;17.80;12.40;;;25.90;99.90;;;;;;5028217;28;20674;-83
2023/08/16 09:29:08;;;;;;;16.60;12.68;;;26.10;99.90;;;;;;5034106;27;20197;-83
2023/08/16 09:31:43;;;;;;;18.95;11.73;;;26.00;99.90;;;;;;5030659;28;20672;-84
2023/08/16 09:34:14;;;;;;;15.60;11.75;;;26.20;99.90;;;;;;5037313;28;20193;-84
2023/08/16 09:36:45;;;;;;;19.80;12.45;;;26.20;99.90;;;;;;5036161;28;20196;-83
2023/08/16 09:39:13;;;;;;;15.00;11.40;;;26.30;99.90;;;;;;5025899;28;20198;-83
2023/08/16 09:41:49;;;;;;;16.33;12.23;;;26.50;99.90;;;;;;5036377;28;20187;-84
2023/08/16 09:44:18;;;;;;;14.32;11.27;;;26.50;99.90;;;;;;5037958;28;20189;-83
2023/08/16 09:46:46;;;;;;;18.83;12.20;;;26.50;99.90;;;;;;5040386;28;20258;-84
2023/08/16 09:49:21;;;;;;;14.02;11.27;;;26.70;99.90;;;;;;5039147;28;20205;-84
2023/08/16 09:51:50;;;;;;;18.80;11.18;;;26.70;99.90;;;;;;5033730;28;20638;-83
2023/08/16 09:54:23;;;;;;;15.23;11.43;;;26.70;99.90;;;;;;5037622;28;20193;-83
2023/08/16 09:56:52;;;;;;;14.82;10.73;;;26.80;99.90;;;;;;5028421;28;20221;-83
2023/08/16 09:59:23;;;;;;;13.05;11.57;;;26.80;99.90;;;;;;5025967;28;20237;-83
2023/08/16 10:01:56;;;;;;;16.08;12.27;;;27.00;99.90;;;;;;5039954;28;20675;-84
2023/08/16 10:04:41;;;;;;;15.05;11.10;;;26.90;99.90;;;;;;5030214;28;20254;-84
2023/08/16 10:07:12;;;;;;;15.18;11.80;;;27.00;99.90;;;;;;5039584;28;20213;-84
2023/08/16 10:09:44;;;;;;;17.85;10.98;;;27.10;99.90;;;;;;5036095;28;20294;-82
2023/08/16 10:12:12;;;;;;;13.75;11.70;;;27.00;99.90;;;;;;5032203;28;20193;-84
2023/08/16 10:14:40;;;;;;;18.60;11.30;;;27.20;99.90;;;;;;5034419;28;20198;-83
2023/08/16 10:17:10;;;;;;;14.88;11.23;;;27.40;99.90;;;;;;5040056;28;20189;-84
2023/08/16 10:19:42;;;;;;;13.40;10.63;;;27.30;99.90;;;;;;5037243;28;20258;-85
2023/08/16 10:22:21;;;;;;;21.20;11.07;;;27.30;99.90;;;;;;5039789;28;20186;-83
2023/08/16 10:25:23;;;;;;;13.55;11.80;;;27.40;99.90;;;;;;5038389;28;20554;-83
2023/08/16 10:27:58;;;;;;;16.35;11.27;;;27.60;99.90;;;;;;5034542;28;20657;-81
2023/08/16 10:30:29;;;;;;;15.00;11.02;;;27.70;99.90;;;;;;5036090;28;20184;-81
2023/08/16 10:33:39;;;;;;;11.95;10.38;;;27.60;99.90;;;;;;5039105;28;20208;-81
2023/08/16 10:36:09;;;;;;;17.17;11.30;;;27.80;99.90;;;;;;5039035;27;21098;-79
2023/08/16 10:38:38;;;;;;;16.42;11.15;;;27.80;99.90;;;;;;5041463;28;20205;-81
2023/08/16 10:41:13;;;;;;;14.60;11.45;;;27.90;99.90;;;;;;5036852;28;20667;-81
2023/08/16 10:43:47;;;;;;;19.17;11.60;;;28.00;99.90;;;;;;5025490;28;20233;-82
2023/08/16 10:46:34;;;;;;;17.63;11.70;;;28.10;99.90;;;;;;5042507;28;20207;-85
2023/08/16 10:49:08;;;;;;;13.10;10.98;;;28.10;99.90;;;;;;5051441;27;20272;-86
2023/08/16 10:51:47;;;;;;;17.80;10.93;;;28.00;99.90;;;;;;5040266;28;20194;-85
2023/08/16 10:54:17;;;;;;;15.70;10.80;;;28.10;99.90;;;;;;5029029;28;20192;-86
2023/08/16 10:56:48;;;;;;;18.80;11.32;;;28.20;99.90;;;;;;5042042;28;20209;-86
2023/08/16 10:59:16;;;;;;;17.45;11.93;;;28.30;99.90;;;;;;5039930;28;20186;-86
2023/08/16 11:01:50;;;;;;;16.88;11.02;;;28.60;99.90;;;;;;5035556;28;20220;-86
2023/08/16 11:04:20;;;;;;;16.52;10.68;;;28.50;99.90;;;;;;5039247;28;20193;-86
2023/08/16 11:06:50;;;;;;;14.43;10.50;;;28.40;99.90;;;;;;5037458;28;20190;-87
2023/08/16 11:09:30;;;;;;;17.30;10.65;;;28.50;99.90;;;;;;5041447;28;20694;-85
2023/08/16 11:12:06;;;;;;;16.13;10.75;;;28.70;99.90;;;;;;5041463;28;20246;-86
2023/08/16 11:14:36;;;;;;;11.63;10.20;;;28.80;99.90;;;;;;5037432;28;20189;-86
2023/08/16 11:17:13;;;;;;;12.95;10.18;;;28.80;99.90;;;;;;5041149;28;20177;-87
2023/08/16 11:19:47;;;;;;;14.43;10.98;;;28.70;99.90;;;;;;5039268;28;20205;-86
2023/08/16 11:22:17;;;;;;;13.38;10.07;;;28.70;99.90;;;;;;5040293;28;20289;-85
2023/08/16 11:24:47;;;;;;;13.27;10.32;;;29.00;99.90;;;;;;5038775;28;20268;-84
2023/08/16 11:27:24;;;;;;;13.55;10.18;;;29.10;99.90;;;;;;5036638;28;20546;-85
2023/08/16 11:30:00;;;;;;;16.83;10.77;;;29.10;99.90;;;;;;5038577;28;20246;-85
2023/08/16 11:32:40;;;;;;;16.23;10.38;;;29.30;99.90;;;;;;5041761;28;20213;-85
2023/08/16 11:35:16;;;;;;;15.38;9.65;;;29.20;99.90;;;;;;5043906;28;20196;-85
2023/08/16 11:37:46;;;;;;;16.15;9.55;;;29.30;99.90;;;;;;5040874;28;20253;-85
2023/08/16 11:40:24;;;;;;;12.73;9.80;;;29.60;99.90;;;;;;5038892;28;20253;-84
2023/08/16 11:43:05;;;;;;;12.95;9.32;;;29.70;99.90;;;;;;5042819;28;20223;-85
2023/08/16 11:45:38;;;;;;;16.58;10.73;;;29.50;99.90;;;;;;5037602;28;20212;-82
2023/08/16 11:48:09;;;;;;;15.27;10.02;;;29.60;99.90;;;;;;5040904;28;20659;-86
2023/08/16 11:50:43;;;;;;;15.30;9.82;;;29.50;99.90;;;;;;5038701;28;20204;-84
2023/08/16 11:53:17;;;;;;;14.48;9.43;;;29.70;99.90;;;;;;5040760;28;20181;-85
2023/08/16 11:56:02;;;;;;;13.88;9.02;;;29.60;99.90;;;;;;5036092;28;20664;-85
2023/08/16 11:58:46;;;;;;;12.70;9.13;;;29.80;99.90;;;;;;5022276;28;20197;-85
2023/08/16 12:01:23;;;;;;;14.70;8.90;;;30.00;99.90;;;;;;5051865;28;20197;-84
2023/08/16 12:03:51;;;;;;;14.20;9.10;;;30.10;99.90;;;;;;5036665;28;20185;-85
2023/08/16 12:06:22;;;;;;;13.13;9.35;;;30.00;99.90;;;;;;5040463;28;20205;-85
2023/08/16 12:08:56;;;;;;;11.70;8.93;;;30.10;99.90;;;;;;5040540;28;20229;-84
2023/08/16 12:11:35;;;;;;;12.88;9.38;;;30.20;99.90;;;;;;5035004;28;20261;-84
2023/08/16 12:14:05;;;;;;;18.33;9.27;;;30.00;99.90;;;;;;5040183;28;20178;-85
2023/08/16 12:16:37;;;;;;;14.95;9.20;;;30.20;99.90;;;;;;5041397;28;20190;-86
2023/08/16 12:19:06;;;;;;;13.45;8.88;;;30.20;99.90;;;;;;5041129;28;20184;-85
2023/08/16 12:21:41;;;;;;;13.00;9.23;;;30.30;99.90;;;;;;5039882;28;20208;-85
2023/08/16 12:24:14;;;;;;;11.38;9.35;;;30.30;99.90;;;;;;5041061;28;20276;-85
2023/08/16 12:26:43;;;;;;;17.10;8.60;;;30.50;99.90;;;;;;5037088;28;20193;-85
2023/08/16 12:29:12;;;;;;;15.38;9.60;;;30.50;99.90;;;;;;5042089;28;20610;-86
2023/08/16 12:31:42;;;;;;;12.90;9.02;;;30.60;99.90;;;;;;5041375;28;20213;-86
2023/08/16 12:34:10;;;;;;;11.88;9.45;;;30.50;99.90;;;;;;5032888;28;20185;-85
2023/08/16 12:36:40;;;;;;;16.13;8.82;;;30.50;99.90;;;;;;5037024;28;20190;-85
2023/08/16 12:39:10;;;;;;;18.10;9.20;;;30.70;99.90;;;;;;5038122;28;20272;-86
2023/08/16 12:41:41;;;;;;;14.45;9.52;;;30.80;99.90;;;;;;5039221;28;20230;-84
2023/08/16 12:44:12;;;;;;;14.02;9.45;;;30.90;99.90;;;;;;5023486;28;20213;-85
2023/08/16 12:46:41;;;;;;;17.85;9.30;;;30.90;99.90;;;;;;5025080;28;20262;-86
2023/08/16 12:49:09;;;;;;;13.07;8.88;;;30.90;99.90;;;;;;5040116;28;20201;-86
2023/08/16 12:51:37;;;;;;;16.83;9.93;;;30.60;99.90;;;;;;5040202;28;20189;-86
2023/08/16 12:54:09;;;;;;;15.85;9.63;;;30.80;99.90;;;;;;5043640;28;20240;-86
2023/08/16 12:56:38;;;;;;;14.07;9.10;;;31.10;99.90;;;;;;5035614;28;20561;-86
2023/08/16 12:59:13;;;;;;;22.65;9.10;;;31.10;99.90;;;;;;5042337;28;20654;-86
2023/08/16 13:01:45;;;;;;;13.85;9.07;;;31.10;99.90;;;;;;5040776;28;20217;-85
2023/08/16 13:04:29;;;;;;;19.08;8.02;;;31.20;99.90;;;;;;5037598;28;20273;-85
2023/08/16 13:07:01;;;;;;;15.50;8.63;;;31.30;99.90;;;;;;5037795;28;20221;-84
2023/08/16 13:09:33;;;;;;;11.18;8.73;;;31.20;99.90;;;;;;5034943;28;20212;-84